sensor_id;sensor_type;location;lat;lon;timestamp;P1;durP1;ratioP1;P2;durP2;ratioP2
21480;SDS011;10902;48.158;8.634;2023-01-29T00:01:05;24.05;;;15.45;;
21480;SDS011;10902;48.158;8.634;2023-01-29T00:03:32;25.60;;;15.73;;
21480;SDS011;10902;48.158;8.634;2023-01-29T00:05:58;22.63;;;14.38;;
21480;SDS011;10902;48.158;8.634;2023-01-29T00:08:24;24.00;;;15.38;;
21480;SDS011;10902;48.158;8.634;2023-01-29T00:10:51;22.45;;;15.10;;
21480;SDS011;10902;48.158;8.634;2023-01-29T00:13:17;24.73;;;16.30;;
21480;SDS011;10902;48.158;8.634;2023-01-29T00:15:51;26.58;;;16.48;;
21480;SDS011;10902;48.158;8.634;2023-01-29T00:18:18;27.30;;;16.67;;
21480;SDS011;10902;48.158;8.634;2023-01-29T00:20:43;28.90;;;17.23;;
21480;SDS011;10902;48.158;8.634;2023-01-29T00:23:09;28.30;;;16.50;;
21480;SDS011;10902;48.158;8.634;2023-01-29T00:25:34;27.00;;;17.02;;
21480;SDS011;10902;48.158;8.634;2023-01-29T00:28:00;28.83;;;17.27;;
21480;SDS011;10902;48.158;8.634;2023-01-29T00:30:25;27.02;;;16.77;;
21480;SDS011;10902;48.158;8.634;2023-01-29T00:32:51;28.60;;;16.67;;
21480;SDS011;10902;48.158;8.634;2023-01-29T00:35:17;26.80;;;15.55;;
21480;SDS011;10902;48.158;8.634;2023-01-29T00:37:43;28.15;;;16.67;;
21480;SDS011;10902;48.158;8.634;2023-01-29T00:40:09;27.33;;;17.20;;
21480;SDS011;10902;48.158;8.634;2023-01-29T00:42:35;28.02;;;17.98;;
21480;SDS011;10902;48.158;8.634;2023-01-29T00:45:19;26.77;;;16.75;;
21480;SDS011;10902;48.158;8.634;2023-01-29T00:47:45;27.95;;;16.65;;
21480;SDS011;10902;48.158;8.634;2023-01-29T00:50:11;27.08;;;16.08;;
21480;SDS011;10902;48.158;8.634;2023-01-29T00:52:37;25.15;;;16.75;;
21480;SDS011;10902;48.158;8.634;2023-01-29T00:55:05;27.38;;;15.77;;
21480;SDS011;10902;48.158;8.634;2023-01-29T00:57:33;26.80;;;16.73;;
21480;SDS011;10902;48.158;8.634;2023-01-29T00:59:59;28.52;;;16.65;;
21480;SDS011;10902;48.158;8.634;2023-01-29T01:02:26;26.45;;;16.45;;
21480;SDS011;10902;48.158;8.634;2023-01-29T01:05:12;27.77;;;16.48;;
21480;SDS011;10902;48.158;8.634;2023-01-29T01:07:41;26.45;;;16.98;;
21480;SDS011;10902;48.158;8.634;2023-01-29T01:10:11;24.75;;;15.15;;
21480;SDS011;10902;48.158;8.634;2023-01-29T01:12:44;23.75;;;14.50;;
21480;SDS011;10902;48.158;8.634;2023-01-29T01:15:10;23.65;;;14.85;;
21480;SDS011;10902;48.158;8.634;2023-01-29T01:17:36;23.40;;;15.25;;
21480;SDS011;10902;48.158;8.634;2023-01-29T01:20:02;20.08;;;13.63;;
21480;SDS011;10902;48.158;8.634;2023-01-29T01:22:28;24.42;;;15.55;;
21480;SDS011;10902;48.158;8.634;2023-01-29T01:24:53;19.48;;;12.60;;
21480;SDS011;10902;48.158;8.634;2023-01-29T01:27:19;20.30;;;12.68;;
21480;SDS011;10902;48.158;8.634;2023-01-29T01:29:45;20.92;;;13.63;;
21480;SDS011;10902;48.158;8.634;2023-01-29T01:32:11;21.25;;;13.43;;
21480;SDS011;10902;48.158;8.634;2023-01-29T01:34:37;20.73;;;12.90;;
21480;SDS011;10902;48.158;8.634;2023-01-29T01:37:02;19.73;;;12.98;;
21480;SDS011;10902;48.158;8.634;2023-01-29T01:39:28;22.15;;;13.35;;
21480;SDS011;10902;48.158;8.634;2023-01-29T01:41:54;19.30;;;12.38;;
21480;SDS011;10902;48.158;8.634;2023-01-29T01:47:19;19.15;;;12.35;;
21480;SDS011;10902;48.158;8.634;2023-01-29T01:49:51;19.85;;;12.38;;
21480;SDS011;10902;48.158;8.634;2023-01-29T01:52:17;18.38;;;12.15;;
21480;SDS011;10902;48.158;8.634;2023-01-29T01:54:44;19.38;;;12.20;;
21480;SDS011;10902;48.158;8.634;2023-01-29T01:57:12;18.88;;;11.98;;
21480;SDS011;10902;48.158;8.634;2023-01-29T01:59:42;17.52;;;11.85;;
21480;SDS011;10902;48.158;8.634;2023-01-29T02:02:12;20.75;;;12.45;;
21480;SDS011;10902;48.158;8.634;2023-01-29T02:04:57;17.80;;;11.48;;
21480;SDS011;10902;48.158;8.634;2023-01-29T02:07:42;17.60;;;11.20;;
21480;SDS011;10902;48.158;8.634;2023-01-29T02:10:31;18.23;;;11.52;;
21480;SDS011;10902;48.158;8.634;2023-01-29T02:13:06;17.75;;;12.30;;
21480;SDS011;10902;48.158;8.634;2023-01-29T02:15:32;18.35;;;11.90;;
21480;SDS011;10902;48.158;8.634;2023-01-29T02:17:58;17.85;;;11.52;;
21480;SDS011;10902;48.158;8.634;2023-01-29T02:20:27;18.85;;;12.02;;
21480;SDS011;10902;48.158;8.634;2023-01-29T02:28:38;17.90;;;11.57;;
21480;SDS011;10902;48.158;8.634;2023-01-29T02:31:22;19.45;;;11.45;;
21480;SDS011;10902;48.158;8.634;2023-01-29T02:36:50;18.13;;;12.05;;
21480;SDS011;10902;48.158;8.634;2023-01-29T02:39:41;19.08;;;12.18;;
21480;SDS011;10902;48.158;8.634;2023-01-29T02:45:01;19.90;;;12.50;;
21480;SDS011;10902;48.158;8.634;2023-01-29T02:47:41;21.60;;;13.18;;
21480;SDS011;10902;48.158;8.634;2023-01-29T02:50:31;20.70;;;12.80;;
21480;SDS011;10902;48.158;8.634;2023-01-29T02:55:35;10.10;;;6.03;;
21480;SDS011;10902;48.158;8.634;2023-01-29T02:58:15;8.00;;;5.22;;
21480;SDS011;10902;48.158;8.634;2023-01-29T03:00:51;9.15;;;5.72;;
21480;SDS011;10902;48.158;8.634;2023-01-29T03:03:26;11.25;;;7.00;;
21480;SDS011;10902;48.158;8.634;2023-01-29T03:08:51;14.38;;;8.93;;
21480;SDS011;10902;48.158;8.634;2023-01-29T03:11:24;17.95;;;11.25;;
21480;SDS011;10902;48.158;8.634;2023-01-29T03:13:58;17.15;;;11.18;;
21480;SDS011;10902;48.158;8.634;2023-01-29T03:19:00;16.80;;;10.60;;
21480;SDS011;10902;48.158;8.634;2023-01-29T03:21:51;15.43;;;9.63;;
21480;SDS011;10902;48.158;8.634;2023-01-29T03:24:40;14.82;;;9.20;;
21480;SDS011;10902;48.158;8.634;2023-01-29T03:27:29;15.15;;;9.40;;
21480;SDS011;10902;48.158;8.634;2023-01-29T03:30:37;15.02;;;9.05;;
21480;SDS011;10902;48.158;8.634;2023-01-29T03:33:27;17.13;;;10.05;;
21480;SDS011;10902;48.158;8.634;2023-01-29T03:36:10;14.13;;;9.40;;
21480;SDS011;10902;48.158;8.634;2023-01-29T03:38:40;13.73;;;8.75;;
21480;SDS011;10902;48.158;8.634;2023-01-29T03:41:12;10.20;;;6.50;;
21480;SDS011;10902;48.158;8.634;2023-01-29T03:49:32;8.57;;;4.97;;
21480;SDS011;10902;48.158;8.634;2023-01-29T03:54:51;7.97;;;5.15;;
21480;SDS011;10902;48.158;8.634;2023-01-29T03:57:30;8.10;;;5.15;;
21480;SDS011;10902;48.158;8.634;2023-01-29T04:00:13;7.95;;;5.00;;
21480;SDS011;10902;48.158;8.634;2023-01-29T04:02:46;8.27;;;5.60;;
21480;SDS011;10902;48.158;8.634;2023-01-29T04:05:15;8.35;;;5.43;;
21480;SDS011;10902;48.158;8.634;2023-01-29T04:07:44;9.93;;;5.80;;
21480;SDS011;10902;48.158;8.634;2023-01-29T04:10:14;8.27;;;5.60;;
21480;SDS011;10902;48.158;8.634;2023-01-29T04:12:48;8.40;;;5.25;;
21480;SDS011;10902;48.158;8.634;2023-01-29T04:15:15;8.13;;;5.28;;
21480;SDS011;10902;48.158;8.634;2023-01-29T04:17:46;8.80;;;5.60;;
21480;SDS011;10902;48.158;8.634;2023-01-29T04:20:15;8.60;;;5.50;;
21480;SDS011;10902;48.158;8.634;2023-01-29T04:22:42;9.18;;;5.65;;
21480;SDS011;10902;48.158;8.634;2023-01-29T04:25:12;10.60;;;5.70;;
21480;SDS011;10902;48.158;8.634;2023-01-29T04:30:45;8.98;;;5.45;;
21480;SDS011;10902;48.158;8.634;2023-01-29T04:33:41;8.25;;;5.00;;
21480;SDS011;10902;48.158;8.634;2023-01-29T04:36:18;8.05;;;5.53;;
21480;SDS011;10902;48.158;8.634;2023-01-29T04:39:04;9.65;;;6.00;;
21480;SDS011;10902;48.158;8.634;2023-01-29T04:42:05;9.38;;;5.80;;
21480;SDS011;10902;48.158;8.634;2023-01-29T04:44:43;8.02;;;5.22;;
21480;SDS011;10902;48.158;8.634;2023-01-29T04:53:00;7.53;;;4.95;;
21480;SDS011;10902;48.158;8.634;2023-01-29T04:55:39;8.65;;;5.68;;
21480;SDS011;10902;48.158;8.634;2023-01-29T04:58:31;9.43;;;5.15;;
21480;SDS011;10902;48.158;8.634;2023-01-29T05:01:07;7.82;;;5.38;;
21480;SDS011;10902;48.158;8.634;2023-01-29T05:03:37;8.00;;;4.82;;
21480;SDS011;10902;48.158;8.634;2023-01-29T05:06:05;9.02;;;5.70;;
21480;SDS011;10902;48.158;8.634;2023-01-29T05:08:33;7.78;;;5.20;;
21480;SDS011;10902;48.158;8.634;2023-01-29T05:11:02;8.65;;;5.70;;
21480;SDS011;10902;48.158;8.634;2023-01-29T05:13:28;8.95;;;5.70;;
21480;SDS011;10902;48.158;8.634;2023-01-29T05:15:58;8.57;;;5.05;;
21480;SDS011;10902;48.158;8.634;2023-01-29T05:18:28;8.32;;;5.13;;
21480;SDS011;10902;48.158;8.634;2023-01-29T05:20:55;9.25;;;5.70;;
21480;SDS011;10902;48.158;8.634;2023-01-29T05:23:22;7.70;;;5.20;;
21480;SDS011;10902;48.158;8.634;2023-01-29T05:25:48;8.57;;;5.10;;
21480;SDS011;10902;48.158;8.634;2023-01-29T05:28:15;8.75;;;5.47;;
21480;SDS011;10902;48.158;8.634;2023-01-29T05:30:45;7.93;;;5.40;;
21480;SDS011;10902;48.158;8.634;2023-01-29T05:33:19;8.65;;;5.55;;
21480;SDS011;10902;48.158;8.634;2023-01-29T05:35:46;7.80;;;5.28;;
21480;SDS011;10902;48.158;8.634;2023-01-29T05:38:13;9.68;;;6.13;;
21480;SDS011;10902;48.158;8.634;2023-01-29T05:40:39;9.77;;;5.97;;
21480;SDS011;10902;48.158;8.634;2023-01-29T05:43:12;9.65;;;6.43;;
21480;SDS011;10902;48.158;8.634;2023-01-29T05:45:56;9.55;;;6.22;;
21480;SDS011;10902;48.158;8.634;2023-01-29T05:48:23;9.52;;;5.65;;
21480;SDS011;10902;48.158;8.634;2023-01-29T05:50:51;10.32;;;6.90;;
21480;SDS011;10902;48.158;8.634;2023-01-29T05:53:17;9.38;;;5.57;;
21480;SDS011;10902;48.158;8.634;2023-01-29T05:55:43;8.55;;;5.25;;
21480;SDS011;10902;48.158;8.634;2023-01-29T05:58:09;8.68;;;5.20;;
21480;SDS011;10902;48.158;8.634;2023-01-29T06:00:35;7.50;;;4.70;;
21480;SDS011;10902;48.158;8.634;2023-01-29T06:03:01;8.02;;;4.93;;
21480;SDS011;10902;48.158;8.634;2023-01-29T06:05:26;7.50;;;4.75;;
21480;SDS011;10902;48.158;8.634;2023-01-29T06:07:52;7.22;;;4.70;;
21480;SDS011;10902;48.158;8.634;2023-01-29T06:10:17;7.82;;;4.85;;
21480;SDS011;10902;48.158;8.634;2023-01-29T06:12:43;7.35;;;4.72;;
21480;SDS011;10902;48.158;8.634;2023-01-29T06:15:09;8.90;;;5.22;;
21480;SDS011;10902;48.158;8.634;2023-01-29T06:17:36;6.65;;;4.00;;
21480;SDS011;10902;48.158;8.634;2023-01-29T06:20:02;7.00;;;4.07;;
21480;SDS011;10902;48.158;8.634;2023-01-29T06:22:29;7.38;;;4.68;;
21480;SDS011;10902;48.158;8.634;2023-01-29T06:24:54;6.57;;;3.80;;
21480;SDS011;10902;48.158;8.634;2023-01-29T06:27:20;6.80;;;3.92;;
21480;SDS011;10902;48.158;8.634;2023-01-29T06:29:45;6.72;;;4.20;;
21480;SDS011;10902;48.158;8.634;2023-01-29T06:32:11;8.18;;;4.50;;
21480;SDS011;10902;48.158;8.634;2023-01-29T06:34:37;7.93;;;4.32;;
21480;SDS011;10902;48.158;8.634;2023-01-29T06:37:02;7.35;;;4.75;;
21480;SDS011;10902;48.158;8.634;2023-01-29T06:39:28;7.03;;;4.40;;
21480;SDS011;10902;48.158;8.634;2023-01-29T06:41:53;7.35;;;4.20;;
21480;SDS011;10902;48.158;8.634;2023-01-29T06:44:19;7.03;;;3.90;;
21480;SDS011;10902;48.158;8.634;2023-01-29T06:46:44;8.65;;;5.03;;
21480;SDS011;10902;48.158;8.634;2023-01-29T06:49:10;6.93;;;4.32;;
21480;SDS011;10902;48.158;8.634;2023-01-29T06:51:36;6.75;;;4.05;;
21480;SDS011;10902;48.158;8.634;2023-01-29T06:54:01;6.03;;;4.10;;
21480;SDS011;10902;48.158;8.634;2023-01-29T06:56:27;8.45;;;5.53;;
21480;SDS011;10902;48.158;8.634;2023-01-29T06:58:53;6.18;;;4.30;;
21480;SDS011;10902;48.158;8.634;2023-01-29T07:01:18;8.38;;;4.70;;
21480;SDS011;10902;48.158;8.634;2023-01-29T07:03:47;7.28;;;4.50;;
21480;SDS011;10902;48.158;8.634;2023-01-29T07:06:13;7.50;;;4.28;;
21480;SDS011;10902;48.158;8.634;2023-01-29T07:08:39;6.35;;;3.85;;
21480;SDS011;10902;48.158;8.634;2023-01-29T07:11:05;6.63;;;3.90;;
21480;SDS011;10902;48.158;8.634;2023-01-29T07:13:31;6.32;;;3.63;;
21480;SDS011;10902;48.158;8.634;2023-01-29T07:15:58;5.30;;;3.03;;
21480;SDS011;10902;48.158;8.634;2023-01-29T07:18:28;6.18;;;3.78;;
21480;SDS011;10902;48.158;8.634;2023-01-29T07:20:54;7.32;;;4.38;;
21480;SDS011;10902;48.158;8.634;2023-01-29T07:23:20;7.10;;;4.10;;
21480;SDS011;10902;48.158;8.634;2023-01-29T07:25:46;6.93;;;4.75;;
21480;SDS011;10902;48.158;8.634;2023-01-29T07:28:13;6.53;;;3.72;;
21480;SDS011;10902;48.158;8.634;2023-01-29T07:30:40;7.40;;;4.20;;
21480;SDS011;10902;48.158;8.634;2023-01-29T07:33:07;7.05;;;4.13;;
21480;SDS011;10902;48.158;8.634;2023-01-29T07:35:37;7.65;;;4.28;;
21480;SDS011;10902;48.158;8.634;2023-01-29T07:38:04;6.32;;;4.00;;
21480;SDS011;10902;48.158;8.634;2023-01-29T07:40:30;5.15;;;3.50;;
21480;SDS011;10902;48.158;8.634;2023-01-29T07:42:57;6.93;;;4.35;;
21480;SDS011;10902;48.158;8.634;2023-01-29T07:45:23;7.82;;;4.65;;
21480;SDS011;10902;48.158;8.634;2023-01-29T07:47:53;7.40;;;4.75;;
21480;SDS011;10902;48.158;8.634;2023-01-29T07:50:20;7.82;;;4.85;;
21480;SDS011;10902;48.158;8.634;2023-01-29T07:52:49;7.30;;;4.95;;
21480;SDS011;10902;48.158;8.634;2023-01-29T07:55:15;7.68;;;4.50;;
21480;SDS011;10902;48.158;8.634;2023-01-29T07:57:41;8.95;;;5.97;;
21480;SDS011;10902;48.158;8.634;2023-01-29T08:00:07;6.90;;;4.47;;
21480;SDS011;10902;48.158;8.634;2023-01-29T08:02:34;7.78;;;4.97;;
21480;SDS011;10902;48.158;8.634;2023-01-29T08:05:00;12.57;;;8.63;;
21480;SDS011;10902;48.158;8.634;2023-01-29T08:07:25;8.85;;;5.22;;
21480;SDS011;10902;48.158;8.634;2023-01-29T08:09:51;12.75;;;8.05;;
21480;SDS011;10902;48.158;8.634;2023-01-29T08:12:16;7.43;;;4.60;;
21480;SDS011;10902;48.158;8.634;2023-01-29T08:14:42;9.65;;;6.10;;
21480;SDS011;10902;48.158;8.634;2023-01-29T08:17:09;7.57;;;4.90;;
21480;SDS011;10902;48.158;8.634;2023-01-29T08:19:35;7.25;;;4.97;;
21480;SDS011;10902;48.158;8.634;2023-01-29T08:22:02;7.65;;;5.00;;
21480;SDS011;10902;48.158;8.634;2023-01-29T08:24:28;7.18;;;4.30;;
21480;SDS011;10902;48.158;8.634;2023-01-29T08:26:53;7.40;;;5.28;;
21480;SDS011;10902;48.158;8.634;2023-01-29T08:29:19;7.68;;;5.10;;
21480;SDS011;10902;48.158;8.634;2023-01-29T08:31:45;7.90;;;5.15;;
21480;SDS011;10902;48.158;8.634;2023-01-29T08:34:10;8.23;;;5.25;;
21480;SDS011;10902;48.158;8.634;2023-01-29T08:36:36;8.48;;;4.90;;
21480;SDS011;10902;48.158;8.634;2023-01-29T08:39:01;8.32;;;5.05;;
21480;SDS011;10902;48.158;8.634;2023-01-29T08:41:27;8.65;;;5.50;;
21480;SDS011;10902;48.158;8.634;2023-01-29T08:43:52;8.40;;;5.40;;
21480;SDS011;10902;48.158;8.634;2023-01-29T08:46:18;7.70;;;4.88;;
21480;SDS011;10902;48.158;8.634;2023-01-29T08:48:44;7.30;;;4.70;;
21480;SDS011;10902;48.158;8.634;2023-01-29T08:51:09;7.70;;;4.82;;
21480;SDS011;10902;48.158;8.634;2023-01-29T08:53:35;7.18;;;4.35;;
21480;SDS011;10902;48.158;8.634;2023-01-29T08:56:00;7.25;;;4.88;;
21480;SDS011;10902;48.158;8.634;2023-01-29T08:58:26;7.03;;;4.60;;
21480;SDS011;10902;48.158;8.634;2023-01-29T09:00:52;6.75;;;4.00;;
21480;SDS011;10902;48.158;8.634;2023-01-29T09:03:17;6.47;;;3.95;;
21480;SDS011;10902;48.158;8.634;2023-01-29T09:05:43;5.80;;;3.80;;
21480;SDS011;10902;48.158;8.634;2023-01-29T09:08:10;6.47;;;4.20;;
21480;SDS011;10902;48.158;8.634;2023-01-29T09:10:36;6.57;;;4.10;;
21480;SDS011;10902;48.158;8.634;2023-01-29T09:13:02;6.45;;;4.13;;
21480;SDS011;10902;48.158;8.634;2023-01-29T09:15:28;6.68;;;4.32;;
21480;SDS011;10902;48.158;8.634;2023-01-29T09:17:53;7.28;;;4.55;;
21480;SDS011;10902;48.158;8.634;2023-01-29T09:20:19;7.32;;;4.65;;
21480;SDS011;10902;48.158;8.634;2023-01-29T09:22:45;7.93;;;5.28;;
21480;SDS011;10902;48.158;8.634;2023-01-29T09:25:11;7.43;;;4.63;;
21480;SDS011;10902;48.158;8.634;2023-01-29T09:27:37;6.82;;;4.28;;
21480;SDS011;10902;48.158;8.634;2023-01-29T09:30:03;7.28;;;4.93;;
21480;SDS011;10902;48.158;8.634;2023-01-29T09:32:30;6.57;;;4.65;;
21480;SDS011;10902;48.158;8.634;2023-01-29T09:34:57;8.45;;;5.50;;
21480;SDS011;10902;48.158;8.634;2023-01-29T09:37:23;6.50;;;4.25;;
21480;SDS011;10902;48.158;8.634;2023-01-29T09:39:48;6.85;;;4.57;;
21480;SDS011;10902;48.158;8.634;2023-01-29T09:44:52;7.00;;;4.50;;
21480;SDS011;10902;48.158;8.634;2023-01-29T09:47:33;7.35;;;4.65;;
21480;SDS011;10902;48.158;8.634;2023-01-29T09:50:02;8.20;;;4.97;;
21480;SDS011;10902;48.158;8.634;2023-01-29T09:52:39;8.35;;;5.07;;
21480;SDS011;10902;48.158;8.634;2023-01-29T09:57:59;8.98;;;5.75;;
21480;SDS011;10902;48.158;8.634;2023-01-29T10:19:51;7.55;;;5.30;;
21480;SDS011;10902;48.158;8.634;2023-01-29T10:25:20;6.80;;;4.57;;
21480;SDS011;10902;48.158;8.634;2023-01-29T10:27:57;6.72;;;4.82;;
21480;SDS011;10902;48.158;8.634;2023-01-29T10:30:34;7.95;;;5.25;;
21480;SDS011;10902;48.158;8.634;2023-01-29T10:33:04;8.13;;;5.32;;
21480;SDS011;10902;48.158;8.634;2023-01-29T10:35:35;8.80;;;5.55;;
21480;SDS011;10902;48.158;8.634;2023-01-29T10:38:14;8.40;;;5.45;;
21480;SDS011;10902;48.158;8.634;2023-01-29T10:41:16;9.32;;;5.80;;
21480;SDS011;10902;48.158;8.634;2023-01-29T10:43:43;8.40;;;5.65;;
21480;SDS011;10902;48.158;8.634;2023-01-29T10:46:24;7.90;;;5.30;;
21480;SDS011;10902;48.158;8.634;2023-01-29T10:54:50;8.35;;;5.00;;
21480;SDS011;10902;48.158;8.634;2023-01-29T11:00:06;8.40;;;5.40;;
21480;SDS011;10902;48.158;8.634;2023-01-29T11:02:41;7.85;;;5.50;;
21480;SDS011;10902;48.158;8.634;2023-01-29T11:08:15;8.98;;;6.18;;
21480;SDS011;10902;48.158;8.634;2023-01-29T11:13:19;9.38;;;5.85;;
21480;SDS011;10902;48.158;8.634;2023-01-29T11:15:50;8.75;;;5.65;;
21480;SDS011;10902;48.158;8.634;2023-01-29T11:18:17;7.65;;;5.38;;
21480;SDS011;10902;48.158;8.634;2023-01-29T11:20:43;8.77;;;5.90;;
21480;SDS011;10902;48.158;8.634;2023-01-29T11:26:04;8.15;;;5.72;;
21480;SDS011;10902;48.158;8.634;2023-01-29T11:31:18;7.75;;;5.43;;
21480;SDS011;10902;48.158;8.634;2023-01-29T11:34:00;8.35;;;5.68;;
21480;SDS011;10902;48.158;8.634;2023-01-29T11:36:34;8.80;;;5.95;;
21480;SDS011;10902;48.158;8.634;2023-01-29T11:41:48;8.68;;;6.25;;
21480;SDS011;10902;48.158;8.634;2023-01-29T11:44:38;7.97;;;5.43;;
21480;SDS011;10902;48.158;8.634;2023-01-29T11:47:27;7.82;;;5.43;;
21480;SDS011;10902;48.158;8.634;2023-01-29T11:49:54;8.07;;;5.55;;
21480;SDS011;10902;48.158;8.634;2023-01-29T11:52:34;8.68;;;5.97;;
21480;SDS011;10902;48.158;8.634;2023-01-29T11:55:04;8.63;;;6.10;;
21480;SDS011;10902;48.158;8.634;2023-01-29T11:57:40;8.27;;;5.43;;
21480;SDS011;10902;48.158;8.634;2023-01-29T12:00:19;8.95;;;5.70;;
21480;SDS011;10902;48.158;8.634;2023-01-29T12:02:54;7.70;;;5.60;;
21480;SDS011;10902;48.158;8.634;2023-01-29T12:05:27;8.48;;;5.85;;
21480;SDS011;10902;48.158;8.634;2023-01-29T12:07:53;8.23;;;5.13;;
21480;SDS011;10902;48.158;8.634;2023-01-29T12:15:35;9.52;;;6.90;;
21480;SDS011;10902;48.158;8.634;2023-01-29T12:18:03;10.52;;;7.63;;
21480;SDS011;10902;48.158;8.634;2023-01-29T12:20:32;9.23;;;6.38;;
21480;SDS011;10902;48.158;8.634;2023-01-29T12:23:22;8.77;;;6.45;;
21480;SDS011;10902;48.158;8.634;2023-01-29T12:25:55;7.93;;;5.75;;
21480;SDS011;10902;48.158;8.634;2023-01-29T12:36:51;9.93;;;6.05;;
21480;SDS011;10902;48.158;8.634;2023-01-29T12:39:23;9.50;;;6.28;;
21480;SDS011;10902;48.158;8.634;2023-01-29T12:41:51;8.80;;;6.28;;
21480;SDS011;10902;48.158;8.634;2023-01-29T12:44:41;9.45;;;6.25;;
21480;SDS011;10902;48.158;8.634;2023-01-29T12:47:13;7.53;;;5.53;;
21480;SDS011;10902;48.158;8.634;2023-01-29T12:49:45;7.43;;;5.47;;
21480;SDS011;10902;48.158;8.634;2023-01-29T12:52:21;7.70;;;5.57;;
21480;SDS011;10902;48.158;8.634;2023-01-29T12:54:50;8.07;;;5.80;;
21480;SDS011;10902;48.158;8.634;2023-01-29T12:57:20;7.68;;;5.97;;
21480;SDS011;10902;48.158;8.634;2023-01-29T13:00:01;8.68;;;6.30;;
21480;SDS011;10902;48.158;8.634;2023-01-29T13:05:03;8.63;;;5.95;;
21480;SDS011;10902;48.158;8.634;2023-01-29T13:07:48;8.55;;;6.38;;
21480;SDS011;10902;48.158;8.634;2023-01-29T13:10:24;9.90;;;6.53;;
21480;SDS011;10902;48.158;8.634;2023-01-29T13:12:57;8.82;;;6.45;;
21480;SDS011;10902;48.158;8.634;2023-01-29T13:15:37;9.90;;;6.88;;
21480;SDS011;10902;48.158;8.634;2023-01-29T13:21:00;10.48;;;7.65;;
21480;SDS011;10902;48.158;8.634;2023-01-29T13:23:30;12.23;;;7.97;;
21480;SDS011;10902;48.158;8.634;2023-01-29T13:25:59;11.40;;;7.55;;
21480;SDS011;10902;48.158;8.634;2023-01-29T13:28:25;12.27;;;8.40;;
21480;SDS011;10902;48.158;8.634;2023-01-29T13:33:36;12.52;;;8.70;;
21480;SDS011;10902;48.158;8.634;2023-01-29T13:36:02;12.20;;;8.13;;
21480;SDS011;10902;48.158;8.634;2023-01-29T13:38:31;11.40;;;7.68;;
21480;SDS011;10902;48.158;8.634;2023-01-29T13:40:59;14.35;;;8.50;;
21480;SDS011;10902;48.158;8.634;2023-01-29T13:43:33;12.50;;;8.25;;
21480;SDS011;10902;48.158;8.634;2023-01-29T13:46:06;12.43;;;8.65;;
21480;SDS011;10902;48.158;8.634;2023-01-29T13:48:41;11.70;;;8.20;;
21480;SDS011;10902;48.158;8.634;2023-01-29T13:51:11;12.88;;;8.30;;
21480;SDS011;10902;48.158;8.634;2023-01-29T13:53:41;13.18;;;9.13;;
21480;SDS011;10902;48.158;8.634;2023-01-29T13:58:51;14.32;;;9.50;;
21480;SDS011;10902;48.158;8.634;2023-01-29T14:01:19;14.70;;;9.55;;
21480;SDS011;10902;48.158;8.634;2023-01-29T14:04:27;14.43;;;9.20;;
21480;SDS011;10902;48.158;8.634;2023-01-29T14:06:58;14.80;;;9.40;;
21480;SDS011;10902;48.158;8.634;2023-01-29T14:11:55;14.35;;;9.23;;
21480;SDS011;10902;48.158;8.634;2023-01-29T14:17:14;14.55;;;9.75;;
21480;SDS011;10902;48.158;8.634;2023-01-29T14:19:47;15.20;;;9.50;;
21480;SDS011;10902;48.158;8.634;2023-01-29T14:22:22;16.40;;;10.95;;
21480;SDS011;10902;48.158;8.634;2023-01-29T14:24:59;15.13;;;9.77;;
21480;SDS011;10902;48.158;8.634;2023-01-29T14:27:27;13.93;;;9.52;;
21480;SDS011;10902;48.158;8.634;2023-01-29T14:29:59;14.70;;;9.98;;
21480;SDS011;10902;48.158;8.634;2023-01-29T14:32:31;16.25;;;10.43;;
21480;SDS011;10902;48.158;8.634;2023-01-29T14:35:01;14.85;;;9.93;;
21480;SDS011;10902;48.158;8.634;2023-01-29T14:37:38;15.93;;;10.35;;
21480;SDS011;10902;48.158;8.634;2023-01-29T14:42:35;15.75;;;9.57;;
21480;SDS011;10902;48.158;8.634;2023-01-29T14:45:19;16.55;;;10.02;;
21480;SDS011;10902;48.158;8.634;2023-01-29T14:47:51;15.52;;;9.55;;
21480;SDS011;10902;48.158;8.634;2023-01-29T14:53:16;14.90;;;10.07;;
21480;SDS011;10902;48.158;8.634;2023-01-29T14:55:58;17.50;;;11.23;;
21480;SDS011;10902;48.158;8.634;2023-01-29T14:58:35;14.75;;;9.80;;
21480;SDS011;10902;48.158;8.634;2023-01-29T15:01:14;15.55;;;10.05;;
21480;SDS011;10902;48.158;8.634;2023-01-29T15:04:37;15.32;;;10.10;;
21480;SDS011;10902;48.158;8.634;2023-01-29T15:06:51;17.83;;;10.70;;
21480;SDS011;10902;48.158;8.634;2023-01-29T15:17:30;15.10;;;9.60;;
21480;SDS011;10902;48.158;8.634;2023-01-29T15:20:03;17.52;;;10.55;;
21480;SDS011;10902;48.158;8.634;2023-01-29T15:22:51;18.15;;;11.43;;
21480;SDS011;10902;48.158;8.634;2023-01-29T15:25:16;18.30;;;10.57;;
21480;SDS011;10902;48.158;8.634;2023-01-29T15:27:44;18.02;;;10.90;;
21480;SDS011;10902;48.158;8.634;2023-01-29T15:30:13;16.60;;;10.80;;
21480;SDS011;10902;48.158;8.634;2023-01-29T15:32:39;17.55;;;10.43;;
21480;SDS011;10902;48.158;8.634;2023-01-29T15:35:06;16.73;;;10.13;;
21480;SDS011;10902;48.158;8.634;2023-01-29T15:37:34;17.40;;;10.20;;
21480;SDS011;10902;48.158;8.634;2023-01-29T15:40:01;18.60;;;11.10;;
21480;SDS011;10902;48.158;8.634;2023-01-29T15:42:41;21.27;;;12.32;;
21480;SDS011;10902;48.158;8.634;2023-01-29T15:45:29;21.83;;;12.55;;
21480;SDS011;10902;48.158;8.634;2023-01-29T15:48:00;16.15;;;10.40;;
21480;SDS011;10902;48.158;8.634;2023-01-29T15:50:33;16.55;;;10.32;;
21480;SDS011;10902;48.158;8.634;2023-01-29T15:53:05;17.92;;;11.32;;
21480;SDS011;10902;48.158;8.634;2023-01-29T15:55:37;15.15;;;10.15;;
21480;SDS011;10902;48.158;8.634;2023-01-29T15:58:04;17.50;;;10.60;;
21480;SDS011;10902;48.158;8.634;2023-01-29T16:00:36;14.90;;;9.57;;
21480;SDS011;10902;48.158;8.634;2023-01-29T16:03:09;17.50;;;10.35;;
21480;SDS011;10902;48.158;8.634;2023-01-29T16:05:39;16.88;;;11.07;;
21480;SDS011;10902;48.158;8.634;2023-01-29T16:08:05;15.55;;;10.40;;
21480;SDS011;10902;48.158;8.634;2023-01-29T16:10:36;17.38;;;11.23;;
21480;SDS011;10902;48.158;8.634;2023-01-29T16:13:04;17.20;;;10.93;;
21480;SDS011;10902;48.158;8.634;2023-01-29T16:15:37;18.98;;;10.82;;
21480;SDS011;10902;48.158;8.634;2023-01-29T16:18:22;20.92;;;12.30;;
21480;SDS011;10902;48.158;8.634;2023-01-29T16:20:52;17.67;;;11.27;;
21480;SDS011;10902;48.158;8.634;2023-01-29T16:23:29;18.90;;;12.02;;
21480;SDS011;10902;48.158;8.634;2023-01-29T16:26:04;20.50;;;12.40;;
21480;SDS011;10902;48.158;8.634;2023-01-29T16:28:32;19.38;;;12.07;;
21480;SDS011;10902;48.158;8.634;2023-01-29T16:31:04;20.17;;;12.80;;
21480;SDS011;10902;48.158;8.634;2023-01-29T16:33:32;19.70;;;12.52;;
21480;SDS011;10902;48.158;8.634;2023-01-29T16:36:00;19.15;;;11.70;;
21480;SDS011;10902;48.158;8.634;2023-01-29T16:38:31;20.50;;;12.95;;
21480;SDS011;10902;48.158;8.634;2023-01-29T16:43:50;20.38;;;12.40;;
21480;SDS011;10902;48.158;8.634;2023-01-29T16:46:24;22.20;;;13.30;;
21480;SDS011;10902;48.158;8.634;2023-01-29T16:48:55;19.15;;;11.60;;
21480;SDS011;10902;48.158;8.634;2023-01-29T16:53:58;20.63;;;11.93;;
21480;SDS011;10902;48.158;8.634;2023-01-29T16:56:29;19.85;;;11.30;;
21480;SDS011;10902;48.158;8.634;2023-01-29T16:58:57;17.02;;;10.88;;
21480;SDS011;10902;48.158;8.634;2023-01-29T17:01:24;17.27;;;11.20;;
21480;SDS011;10902;48.158;8.634;2023-01-29T17:03:58;17.98;;;11.25;;
21480;SDS011;10902;48.158;8.634;2023-01-29T17:06:29;18.70;;;10.95;;
21480;SDS011;10902;48.158;8.634;2023-01-29T17:08:56;18.27;;;11.60;;
21480;SDS011;10902;48.158;8.634;2023-01-29T17:11:35;18.20;;;11.02;;
21480;SDS011;10902;48.158;8.634;2023-01-29T17:14:04;19.38;;;11.35;;
21480;SDS011;10902;48.158;8.634;2023-01-29T17:16:32;22.52;;;12.60;;
21480;SDS011;10902;48.158;8.634;2023-01-29T17:18:59;19.73;;;12.82;;